Cierra AICM operaciones por clima

Tiempo de lectura: < 1 minuto

Esta mañana al rededor de las 7:00 horas locales, el Aeropuerto Internacional de la Ciudad de México (AICM), se mantuvo cerrado por fenómenos meteorológicos de oscurecimiento; el reporte en esos momentos mostraba lo siguiente:

MMMX 041353Z 08006KT 1/4SM FG VV003(vertical vis. 300ft) 06/05 A3036 BECMG 1/2SM FG RMK 8//// TWR VSBY.

Bajo mínimos, y sus alternos estaban siendo activados. Al rededor de las 7:30 horas locales, se reactivaron parcialmente las operaciones de la terminal.

  • author's avatar

    Por: Redacción

    «Uniendo al mundo de la aviación, en una misma frecuencia».

  • author's avatar

Deja tu comentario.

También te podría gustar...